Time;durP1;ratioP1;P1;durP2;ratioP2;P2;SDS_P1;SDS_P2;PMS_P1;PMS_P2;Temp;Humidity;BMP_temperature;BMP_pressure;BME280_temperature;BME280_humidity;BME280_pressure;Samples;Min_cycle;Max_cycle;Signal;HPM_P1;HPM_P2
2021/09/01 00:02:10;;;;;;;27.88;14.35;;;;;;;15.00;78.86;100730.75;5090605;28;20511;-71
2021/09/01 00:04:36;;;;;;;28.48;15.13;;;;;;;15.02;78.61;100733.34;5090128;28;20029;-70
2021/09/01 00:07:01;;;;;;;23.38;13.52;;;;;;;15.04;78.83;100728.81;5091026;28;20563;-72
2021/09/01 00:09:26;;;;;;;18.27;12.35;;;;;;;15.06;78.40;100726.03;5085830;28;20051;-70
2021/09/01 00:11:53;;;;;;;21.85;12.77;;;;;;;15.06;78.45;100726.91;5088824;28;20051;-70
2021/09/01 00:14:18;;;;;;;22.25;12.23;;;;;;;15.10;78.49;100730.28;5090870;28;20615;-70
2021/09/01 00:16:44;;;;;;;21.60;12.63;;;;;;;15.12;78.43;100726.59;5089584;28;20077;-71
2021/09/01 00:19:10;;;;;;;17.98;11.98;;;;;;;15.17;78.17;100732.50;5091404;28;20043;-70
2021/09/01 00:21:37;;;;;;;18.88;10.98;;;;;;;15.11;78.37;100724.00;5088189;28;20401;-70
2021/09/01 00:24:02;;;;;;;19.98;10.88;;;;;;;15.11;78.29;100719.56;5090871;28;20066;-70
2021/09/01 00:26:29;;;;;;;16.95;10.25;;;;;;;15.11;78.56;100719.56;5090654;28;20028;-70
2021/09/01 00:28:55;;;;;;;19.60;11.30;;;;;;;15.13;78.02;100722.97;5090927;28;20059;-72
2021/09/01 00:31:21;;;;;;;17.80;10.88;;;;;;;15.11;78.10;100718.69;5090303;28;20032;-70
2021/09/01 00:33:47;;;;;;;18.85;11.95;;;;;;;15.10;77.93;100709.03;5091949;28;20040;-71
2021/09/01 00:36:13;;;;;;;24.70;12.02;;;;;;;15.07;78.44;100702.06;5091641;28;20039;-71
2021/09/01 00:38:39;;;;;;;17.83;10.00;;;;;;;15.10;78.17;100703.72;5091519;28;20046;-71
2021/09/01 00:41:05;;;;;;;19.48;12.02;;;;;;;15.06;77.90;100708.31;5088153;28;20032;-71
2021/09/01 00:43:30;;;;;;;21.38;11.00;;;;;;;14.97;78.26;100704.38;5090241;28;20028;-71
2021/09/01 00:45:56;;;;;;;19.10;10.13;;;;;;;14.98;78.01;100707.88;5090904;28;20039;-70
2021/09/01 00:48:23;;;;;;;13.60;9.80;;;;;;;14.97;77.99;100714.13;5090492;28;20624;-72
2021/09/01 00:50:51;;;;;;;17.40;10.30;;;;;;;15.02;78.04;100717.41;5090310;28;20086;-72
2021/09/01 00:53:22;;;;;;;21.63;10.90;;;;;;;15.06;78.08;100718.94;5088542;28;20046;-71
2021/09/01 00:55:48;;;;;;;17.08;10.35;;;;;;;15.08;77.70;100714.41;5091213;27;20040;-71
2021/09/01 00:58:18;;;;;;;20.13;11.88;;;;;;;15.11;77.27;100710.72;5090238;28;20043;-71
2021/09/01 01:03:28;;;;;;;20.13;12.63;;;;;;;14.97;77.68;100720.28;5089066;28;20490;-71
2021/09/01 01:05:57;;;;;;;21.38;10.82;;;;;;;14.89;77.78;100719.84;5091309;28;20038;-71
2021/09/01 01:08:27;;;;;;;16.70;9.90;;;;;;;14.86;78.02;100722.63;5088417;28;20028;-71
2021/09/01 01:10:52;;;;;;;16.75;10.48;;;;;;;14.89;77.78;100724.28;5088993;28;20476;-71
2021/09/01 01:13:17;;;;;;;19.98;11.75;;;;;;;14.87;77.67;100724.38;5089104;28;20124;-71
2021/09/01 01:15:43;;;;;;;21.17;8.73;;;;;;;14.87;77.83;100727.03;5089599;28;20119;-71
2021/09/01 01:18:11;;;;;;;20.40;10.32;;;;;;;14.87;77.64;100726.19;5088138;28;20435;-71
2021/09/01 01:20:38;;;;;;;20.98;11.35;;;;;;;14.81;77.75;100730.84;5091834;28;20036;-71
2021/09/01 01:23:05;;;;;;;20.23;10.55;;;;;;;14.80;77.79;100730.94;5091794;28;20036;-71
2021/09/01 01:25:37;;;;;;;18.15;9.68;;;;;;;14.80;77.91;100729.13;5091275;28;20020;-70
2021/09/01 01:28:03;;;;;;;20.58;11.98;;;;;;;14.81;77.59;100730.84;5091701;28;20052;-71
2021/09/01 01:30:28;;;;;;;17.55;10.60;;;;;;;14.82;77.81;100729.91;5092755;28;20055;-71
2021/09/01 01:32:54;;;;;;;19.70;12.02;;;;;;;14.77;77.52;100728.44;5090003;28;20090;-71
2021/09/01 01:35:35;;;;;;;17.83;10.85;;;;;;;14.76;77.90;100732.03;5091306;28;20041;-71
2021/09/01 01:38:03;;;;;;;18.35;11.23;;;;;;;14.76;77.56;100726.72;5089840;28;20028;-72
2021/09/01 01:40:29;;;;;;;17.55;10.77;;;;;;;14.75;77.86;100725.00;5088984;28;20082;-71
2021/09/01 01:42:55;;;;;;;18.90;10.07;;;;;;;14.77;77.57;100731.09;5088264;28;20088;-71
2021/09/01 01:45:22;;;;;;;20.15;11.27;;;;;;;14.71;77.89;100726.94;5089172;28;20024;-71
2021/09/01 01:47:47;;;;;;;21.15;12.10;;;;;;;14.72;78.21;100731.34;5089441;28;20036;-72
2021/09/01 01:50:13;;;;;;;18.48;10.95;;;;;;;14.67;78.18;100737.78;5089492;28;20024;-72
2021/09/01 01:52:38;;;;;;;26.83;11.65;;;;;;;14.59;77.97;100736.41;5087815;28;20581;-72
2021/09/01 01:55:06;;;;;;;15.30;8.70;;;;;;;14.65;78.17;100734.38;5087889;28;20527;-72
2021/09/01 01:57:32;;;;;;;16.42;11.13;;;;;;;14.74;77.92;100731.25;5088942;28;20028;-72
2021/09/01 01:59:57;;;;;;;18.92;10.07;;;;;;;14.77;77.58;100734.59;5088867;28;20029;-71
2021/09/01 02:02:28;;;;;;;16.33;9.77;;;;;;;14.79;77.08;100742.47;5088087;28;20036;-72
2021/09/01 02:04:54;;;;;;;15.45;10.25;;;;;;;14.78;77.35;100744.28;5089012;28;20032;-72
2021/09/01 02:07:19;;;;;;;11.75;8.18;;;;;;;14.80;77.22;100739.75;5088879;28;20451;-72
2021/09/01 02:09:44;;;;;;;16.73;9.95;;;;;;;14.82;77.17;100745.84;5067693;28;20044;-72
2021/09/01 02:12:10;;;;;;;18.95;10.90;;;;;;;14.74;77.08;100744.50;5067452;28;20040;-72
2021/09/01 02:14:35;;;;;;;16.08;10.18;;;;;;;14.67;77.51;100743.97;5069009;28;20028;-72
2021/09/01 02:17:00;;;;;;;17.13;11.05;;;;;;;14.71;77.63;100744.66;5068473;28;20390;-72
2021/09/01 02:19:26;;;;;;;18.20;9.48;;;;;;;14.75;77.78;100739.13;5068301;28;20454;-71
2021/09/01 02:21:51;;;;;;;20.50;10.38;;;;;;;14.79;77.28;100740.69;5067103;28;20040;-71
2021/09/01 02:24:16;;;;;;;13.10;8.90;;;;;;;14.81;77.44;100736.16;5066702;28;20037;-71
2021/09/01 02:26:42;;;;;;;18.05;11.85;;;;;;;14.82;76.55;100742.34;5068526;28;20031;-71
2021/09/01 02:29:07;;;;;;;23.90;11.90;;;;;;;14.70;76.92;100749.13;5068264;28;20035;-71
2021/09/01 02:31:32;;;;;;;21.00;11.43;;;;;;;14.57;77.87;100748.91;5068038;28;20040;-71
2021/09/01 02:33:58;;;;;;;22.30;10.43;;;;;;;14.53;78.12;100749.09;5066580;28;20032;-71
2021/09/01 02:36:23;;;;;;;14.82;9.75;;;;;;;14.56;78.43;100746.31;5068303;28;20036;-71
2021/09/01 02:38:48;;;;;;;15.65;9.35;;;;;;;14.62;78.13;100748.66;5068221;28;20037;-71
2021/09/01 02:41:14;;;;;;;19.95;10.02;;;;;;;14.65;77.63;100743.19;5068051;28;20051;-71
2021/09/01 02:43:40;;;;;;;13.75;8.25;;;;;;;14.71;77.87;100742.88;5067934;28;20036;-71
2021/09/01 02:46:06;;;;;;;19.33;10.50;;;;;;;14.74;77.70;100739.19;5071598;28;20116;-71
2021/09/01 02:48:32;;;;;;;15.70;10.90;;;;;;;14.76;77.37;100745.28;5072276;28;20025;-72
2021/09/01 02:50:58;;;;;;;18.70;10.82;;;;;;;14.72;77.50;100735.78;5071860;28;20386;-72
2021/09/01 02:53:23;;;;;;;20.00;9.50;;;;;;;14.71;77.54;100747.31;5071829;28;20040;-72
2021/09/01 02:55:49;;;;;;;34.75;12.73;;;;;;;14.69;77.07;100744.75;5070859;28;20037;-72
2021/09/01 02:58:15;;;;;;;18.10;10.88;;;;;;;14.70;77.54;100757.09;5073205;28;20059;-71
2021/09/01 03:00:40;;;;;;;21.25;11.23;;;;;;;14.72;77.61;100755.22;5072163;28;20032;-72
2021/09/01 03:03:06;;;;;;;17.80;10.02;;;;;;;14.70;78.16;100749.13;5071847;28;20891;-71
2021/09/01 03:05:31;;;;;;;22.70;11.55;;;;;;;14.72;77.88;100741.94;5072041;28;20159;-71
2021/09/01 03:07:57;;;;;;;20.38;11.85;;;;;;;14.72;77.50;100738.44;5072115;28;20371;-71
2021/09/01 03:10:22;;;;;;;14.95;11.07;;;;;;;14.68;77.39;100731.56;5071635;28;20040;-73
2021/09/01 03:12:48;;;;;;;17.35;9.80;;;;;;;14.65;77.10;100734.38;5069483;28;20044;-71
2021/09/01 03:15:13;;;;;;;18.98;11.00;;;;;;;14.60;77.37;100746.09;5071561;28;20751;-72
2021/09/01 03:17:39;;;;;;;15.45;9.60;;;;;;;14.57;77.15;100740.06;5072104;28;20060;-73
2021/09/01 03:20:05;;;;;;;17.27;10.20;;;;;;;14.59;77.27;100735.53;5075030;28;20493;-73
2021/09/01 03:22:31;;;;;;;15.55;9.50;;;;;;;14.60;77.33;100742.56;5072404;28;20401;-73
2021/09/01 03:24:57;;;;;;;27.75;11.60;;;;;;;14.57;77.54;100732.97;5073414;28;20037;-72
2021/09/01 03:27:22;;;;;;;21.27;11.20;;;;;;;14.58;77.28;100725.88;5073114;28;20453;-73
2021/09/01 03:29:48;;;;;;;14.30;9.55;;;;;;;14.61;77.54;100728.34;5072776;28;20048;-72
2021/09/01 03:32:13;;;;;;;18.90;12.38;;;;;;;14.62;77.20;100722.13;5070173;28;20036;-73
2021/09/01 03:34:38;;;;;;;20.13;10.00;;;;;;;14.60;77.44;100710.72;5071181;28;20035;-73
2021/09/01 03:37:04;;;;;;;17.60;9.88;;;;;;;14.64;77.30;100719.38;5072104;28;20031;-71
2021/09/01 03:39:29;;;;;;;17.83;11.00;;;;;;;14.65;77.24;100715.81;5071647;28;20029;-72
2021/09/01 03:41:54;;;;;;;14.48;9.65;;;;;;;14.65;77.36;100714.00;5071063;28;20098;-72
2021/09/01 03:44:20;;;;;;;18.15;10.07;;;;;;;14.67;76.94;100716.56;5070746;28;20024;-72
2021/09/01 03:46:45;;;;;;;17.35;7.95;;;;;;;14.71;77.17;100711.03;5071376;28;20032;-72
2021/09/01 03:49:17;;;;;;;13.13;8.85;;;;;;;14.74;76.21;100717.97;5072564;28;20035;-72
2021/09/01 03:51:46;;;;;;;18.20;9.18;;;;;;;14.74;76.56;100718.84;5074201;28;20068;-73
2021/09/01 03:54:12;;;;;;;22.27;9.90;;;;;;;14.78;76.38;100716.88;5073728;28;20064;-72
2021/09/01 03:56:37;;;;;;;23.30;9.07;;;;;;;14.75;76.36;100725.88;5071518;28;20068;-72
2021/09/01 03:59:06;;;;;;;15.40;10.15;;;;;;;14.75;76.17;100725.88;5071002;28;20041;-72
2021/09/01 04:01:33;;;;;;;13.77;9.43;;;;;;;14.69;76.09;100738.56;5070547;28;20036;-73
2021/09/01 04:04:07;;;;;;;16.23;9.43;;;;;;;14.70;75.42;100737.66;5071203;28;20040;-73
2021/09/01 04:06:33;;;;;;;18.80;10.80;;;;;;;14.69;75.68;100734.13;5071031;28;20025;-72
2021/09/01 04:08:59;;;;;;;14.05;8.88;;;;;;;14.75;75.55;100739.13;5070935;28;20044;-72
2021/09/01 04:11:24;;;;;;;9.95;6.85;;;;;;;14.79;76.05;100740.69;5068651;28;20025;-72
2021/09/01 04:13:50;;;;;;;14.68;9.48;;;;;;;14.85;75.71;100742.19;5070355;28;20041;-72
2021/09/01 04:16:16;;;;;;;15.57;9.88;;;;;;;14.88;75.29;100749.97;5070569;28;20055;-71
2021/09/01 04:18:41;;;;;;;15.55;9.32;;;;;;;14.85;75.17;100743.97;5070800;28;20068;-72
2021/09/01 04:21:07;;;;;;;16.00;9.15;;;;;;;14.79;75.10;100748.66;5070586;28;20068;-72
2021/09/01 04:23:32;;;;;;;15.77;8.77;;;;;;;14.78;75.00;100748.72;5070650;28;20558;-72
2021/09/01 04:25:58;;;;;;;12.52;7.28;;;;;;;14.77;75.28;100749.69;5070634;28;20041;-72
2021/09/01 04:28:23;;;;;;;16.83;8.38;;;;;;;14.80;75.10;100753.03;5069456;28;20039;-72
2021/09/01 04:30:48;;;;;;;13.32;8.60;;;;;;;14.84;75.26;100750.19;5070065;28;20029;-73
2021/09/01 04:33:14;;;;;;;21.10;8.75;;;;;;;14.88;75.12;100749.13;5069678;28;20473;-72
2021/09/01 04:35:39;;;;;;;12.70;8.13;;;;;;;14.90;74.97;100745.44;5068829;28;20040;-73
2021/09/01 04:38:05;;;;;;;12.60;7.57;;;;;;;14.94;74.65;100747.00;5071253;28;20025;-72
2021/09/01 04:40:31;;;;;;;13.55;8.00;;;;;;;14.96;74.61;100752.22;5070216;28;20028;-72
2021/09/01 04:42:56;;;;;;;12.55;7.47;;;;;;;14.92;74.47;100743.56;5069852;28;20398;-71
2021/09/01 04:45:21;;;;;;;12.82;6.82;;;;;;;14.90;74.49;100744.59;5070018;28;20036;-73
2021/09/01 04:47:47;;;;;;;10.65;6.60;;;;;;;14.92;74.37;100738.25;5070284;28;20154;-72
2021/09/01 04:50:13;;;;;;;15.80;7.57;;;;;;;14.95;74.13;100742.56;5069786;28;20028;-71
2021/09/01 04:52:38;;;;;;;15.93;9.60;;;;;;;14.88;73.95;100746.47;5051219;28;20036;-72
2021/09/01 04:55:04;;;;;;;17.35;10.95;;;;;;;14.81;74.39;100748.56;5043083;28;20170;-72
2021/09/01 04:57:30;;;;;;;18.70;10.23;;;;;;;14.77;74.65;100744.38;5052374;28;20044;-73
2021/09/01 04:59:55;;;;;;;18.65;8.68;;;;;;;14.71;74.18;100748.19;5043326;28;20493;-72
2021/09/01 05:02:20;;;;;;;17.35;9.20;;;;;;;14.70;74.62;100753.59;5050771;28;20033;-72
2021/09/01 05:04:46;;;;;;;15.65;9.00;;;;;;;14.69;74.69;100750.03;5069847;28;20128;-71
2021/09/01 05:07:11;;;;;;;14.63;8.45;;;;;;;14.65;74.88;100753.81;5069711;28;20111;-71
2021/09/01 05:09:36;;;;;;;17.52;10.18;;;;;;;14.66;74.86;100755.53;5068759;28;20064;-71
2021/09/01 05:12:02;;;;;;;9.98;7.13;;;;;;;14.70;75.08;100753.59;5068717;28;20464;-72
2021/09/01 05:14:27;;;;;;;9.57;7.18;;;;;;;14.75;74.48;100746.25;5069423;28;20067;-71
2021/09/01 05:16:52;;;;;;;15.25;8.07;;;;;;;14.78;73.96;100759.34;5068177;28;20497;-71
2021/09/01 05:19:18;;;;;;;16.60;9.10;;;;;;;14.76;73.68;100763.88;5069443;28;20035;-72
2021/09/01 05:21:51;;;;;;;22.05;9.70;;;;;;;14.71;73.78;100764.09;5068720;28;20036;-72
2021/09/01 05:24:36;;;;;;;12.10;7.95;;;;;;;14.70;74.40;100773.03;5064878;28;20546;-72
2021/09/01 05:27:13;;;;;;;14.85;7.93;;;;;;;14.76;74.17;100761.22;5069534;28;20043;-73
2021/09/01 05:29:42;;;;;;;9.93;7.38;;;;;;;14.79;74.36;100766.38;5069505;28;20037;-71
2021/09/01 05:32:13;;;;;;;13.05;6.75;;;;;;;14.84;73.89;100766.13;5068416;28;20036;-70
2021/09/01 05:34:39;;;;;;;17.88;8.32;;;;;;;14.79;73.72;100769.91;5069665;28;20037;-70
2021/09/01 05:37:05;;;;;;;13.32;7.55;;;;;;;14.86;73.59;100777.53;5069347;28;20174;-71
2021/09/01 05:39:31;;;;;;;19.00;8.05;;;;;;;14.87;73.63;100772.16;5069157;28;20131;-71
2021/09/01 05:41:57;;;;;;;18.52;8.18;;;;;;;14.94;73.29;100764.72;5063280;28;20439;-70
2021/09/01 05:44:23;;;;;;;16.77;8.27;;;;;;;14.90;72.87;100769.34;5067918;28;20037;-71
2021/09/01 05:46:50;;;;;;;18.52;7.05;;;;;;;14.90;72.93;100763.19;5068880;28;20039;-72
2021/09/01 05:49:16;;;;;;;16.02;6.72;;;;;;;14.92;72.58;100766.63;5069193;28;20024;-72
2021/09/01 05:51:42;;;;;;;23.08;16.17;;;;;;;14.98;72.60;100774.25;5066532;28;20541;-70
2021/09/01 05:54:07;;;;;;;25.55;13.35;;;;;;;14.99;72.71;100771.53;5069352;28;20175;-70
2021/09/01 05:56:34;;;;;;;12.30;8.50;;;;;;;15.04;72.45;100768.63;5067936;28;20064;-70
2021/09/01 05:59:09;;;;;;;14.43;7.93;;;;;;;15.07;71.64;100767.63;5065656;28;21320;-70
2021/09/01 06:01:39;;;;;;;16.33;8.07;;;;;;;15.06;71.86;100765.88;5067480;28;20029;-71
2021/09/01 06:04:08;;;;;;;19.83;7.47;;;;;;;15.05;71.82;100762.38;5068198;28;20489;-70
2021/09/01 06:06:38;;;;;;;13.38;6.95;;;;;;;15.07;71.90;100772.94;5067195;28;20032;-71
2021/09/01 06:09:07;;;;;;;13.02;6.47;;;;;;;15.06;71.72;100766.75;5066160;28;20041;-70
2021/09/01 06:11:34;;;;;;;13.32;7.57;;;;;;;15.10;71.68;100767.44;5066553;28;20036;-71
2021/09/01 06:14:00;;;;;;;14.57;6.25;;;;;;;15.07;71.85;100771.13;5067625;28;20033;-70
2021/09/01 06:16:25;;;;;;;14.68;7.00;;;;;;;15.08;71.49;100775.50;5068553;28;20113;-71
2021/09/01 06:18:50;;;;;;;16.25;6.90;;;;;;;15.08;72.14;100774.63;5065016;28;20040;-70
2021/09/01 06:21:17;;;;;;;12.95;6.47;;;;;;;15.11;71.80;100775.34;5051114;28;20808;-70
2021/09/01 06:23:42;;;;;;;10.43;7.30;;;;;;;15.06;71.73;100774.69;5053972;28;20041;-71
2021/09/01 06:26:08;;;;;;;14.88;6.78;;;;;;;15.02;71.84;100776.69;5064413;28;20608;-69
2021/09/01 06:28:33;;;;;;;14.90;5.60;;;;;;;15.04;71.06;100776.59;5062481;28;20032;-70
2021/09/01 06:30:59;;;;;;;10.95;5.30;;;;;;;15.02;70.39;100773.16;5062079;28;20068;-69
2021/09/01 06:33:24;;;;;;;9.90;5.60;;;;;;;15.09;70.56;100771.03;5061424;28;20040;-71
2021/09/01 06:35:50;;;;;;;10.02;5.47;;;;;;;15.11;69.94;100779.78;5062137;28;20068;-71
2021/09/01 06:38:15;;;;;;;12.40;5.13;;;;;;;15.12;69.74;100776.19;5062335;28;20047;-72
2021/09/01 06:40:40;;;;;;;13.55;4.72;;;;;;;15.17;69.25;100780.31;5063250;28;20045;-72
2021/09/01 06:43:06;;;;;;;9.57;4.93;;;;;;;15.20;69.53;100776.66;5065432;28;20061;-72
2021/09/01 06:45:31;;;;;;;10.80;4.88;;;;;;;15.22;69.40;100778.28;5066016;28;20094;-71
2021/09/01 06:47:56;;;;;;;13.55;5.65;;;;;;;15.25;69.77;100771.94;5063079;28;20064;-70
2021/09/01 06:50:24;;;;;;;11.50;5.57;;;;;;;15.25;69.96;100775.47;5067963;28;20417;-72
2021/09/01 06:52:51;;;;;;;18.08;6.57;;;;;;;15.18;70.12;100787.34;5065357;28;20043;-72
2021/09/01 06:55:17;;;;;;;11.07;5.32;;;;;;;15.16;70.40;100783.06;5068634;28;20029;-72
2021/09/01 06:57:43;;;;;;;18.55;5.45;;;;;;;15.17;69.56;100774.16;5067576;28;20039;-73
2021/09/01 07:00:13;;;;;;;22.77;6.00;;;;;;;15.19;70.26;100783.78;5067318;28;20076;-72
2021/09/01 07:02:39;;;;;;;12.93;5.55;;;;;;;15.23;70.47;100780.03;5075811;28;20468;-72
2021/09/01 07:05:05;;;;;;;17.10;6.57;;;;;;;15.31;70.15;100786.69;5068159;28;20086;-72
2021/09/01 07:07:31;;;;;;;14.10;5.93;;;;;;;15.34;70.03;100789.22;5068118;28;20565;-73
2021/09/01 07:09:56;;;;;;;22.65;6.45;;;;;;;15.33;70.10;100793.66;5067951;28;20096;-73
2021/09/01 07:12:22;;;;;;;17.50;6.55;;;;;;;15.30;70.08;100795.63;5067855;28;20289;-73
2021/09/01 07:14:48;;;;;;;11.32;5.43;;;;;;;15.23;69.98;100793.31;5067854;28;20036;-75
2021/09/01 07:17:14;;;;;;;12.55;5.85;;;;;;;15.26;69.72;100797.59;5065677;28;20043;-73
2021/09/01 07:19:40;;;;;;;9.57;5.05;;;;;;;15.28;70.00;100794.84;5039785;28;20038;-75
2021/09/01 07:22:05;;;;;;;12.02;5.68;;;;;;;15.38;70.12;100794.28;5057207;28;20037;-75
2021/09/01 07:24:31;;;;;;;14.18;5.93;;;;;;;15.36;69.94;100803.28;5068608;28;20029;-73
2021/09/01 07:26:56;;;;;;;12.13;5.57;;;;;;;15.34;70.30;100799.84;5068519;28;20039;-70
2021/09/01 07:29:21;;;;;;;15.50;6.82;;;;;;;15.36;70.47;100806.78;5071122;28;20036;-73
2021/09/01 07:31:47;;;;;;;21.70;6.28;;;;;;;15.38;70.47;100810.25;5071842;28;21839;-72
2021/09/01 07:34:12;;;;;;;13.70;5.70;;;;;;;15.45;70.34;100811.59;5073197;28;20040;-73
2021/09/01 07:36:37;;;;;;;14.82;5.03;;;;;;;15.53;70.24;100813.88;5078266;28;20166;-74
2021/09/01 07:39:03;;;;;;;9.40;5.97;;;;;;;15.44;69.22;100812.56;5074048;28;20177;-74
2021/09/01 07:41:29;;;;;;;12.80;6.30;;;;;;;15.37;69.41;100811.16;5070638;28;20101;-73
2021/09/01 07:43:54;;;;;;;8.95;5.25;;;;;;;15.38;69.42;100810.25;5073201;28;20032;-71
2021/09/01 07:46:20;;;;;;;14.50;5.68;;;;;;;15.41;69.53;100819.84;5072304;28;20411;-70
2021/09/01 07:48:45;;;;;;;11.57;5.28;;;;;;;15.40;69.91;100808.34;5073629;28;20507;-72
2021/09/01 07:51:11;;;;;;;10.18;6.90;;;;;;;15.40;69.79;100812.78;5073919;28;20173;-71
2021/09/01 07:53:36;;;;;;;13.10;5.68;;;;;;;15.33;69.58;100806.94;5072719;28;20049;-73
2021/09/01 07:56:02;;;;;;;9.30;5.38;;;;;;;15.28;69.32;100818.75;5072836;28;20104;-72
2021/09/01 07:58:27;;;;;;;13.77;6.03;;;;;;;15.29;69.56;100817.81;5071922;28;20028;-71
2021/09/01 08:00:53;;;;;;;16.83;6.00;;;;;;;15.31;69.98;100823.91;5070044;28;20032;-71
2021/09/01 08:03:18;;;;;;;9.98;6.13;;;;;;;15.29;69.58;100831.97;5037562;28;20124;-70
2021/09/01 08:05:45;;;;;;;13.38;6.93;;;;;;;15.34;69.56;100829.94;5072253;28;20120;-72
2021/09/01 08:08:10;;;;;;;21.88;5.60;;;;;;;15.39;69.04;100827.03;5072511;28;20085;-72
2021/09/01 08:10:36;;;;;;;13.00;5.72;;;;;;;15.40;69.19;100832.25;5071363;28;20032;-72
2021/09/01 08:13:01;;;;;;;20.42;5.82;;;;;;;15.43;69.08;100833.88;5070952;28;20033;-72
2021/09/01 08:15:27;;;;;;;11.50;5.70;;;;;;;15.50;69.28;100842.41;5071362;28;20060;-72
2021/09/01 08:17:52;;;;;;;13.13;4.93;;;;;;;15.57;69.03;100849.09;5071375;28;20412;-72
2021/09/01 08:20:18;;;;;;;10.30;5.68;;;;;;;15.67;68.92;100848.53;5071377;28;20048;-73
2021/09/01 08:22:43;;;;;;;10.32;5.68;;;;;;;15.73;68.72;100846.53;5069998;28;20040;-71
2021/09/01 08:25:12;;;;;;;10.07;5.88;;;;;;;15.61;68.73;100848.88;5071319;28;20039;-71
2021/09/01 08:27:38;;;;;;;14.95;6.50;;;;;;;15.60;68.66;100852.47;5070788;28;20033;-72
2021/09/01 08:30:06;;;;;;;9.45;6.57;;;;;;;15.58;68.99;100865.00;5071232;28;20060;-71
2021/09/01 08:32:32;;;;;;;11.10;5.80;;;;;;;15.56;69.23;100860.69;5070163;28;20370;-70
2021/09/01 08:34:57;;;;;;;17.67;8.63;;;;;;;15.53;70.21;100858.19;5071622;28;20104;-73
2021/09/01 08:37:23;;;;;;;14.80;7.45;;;;;;;15.51;70.48;100863.59;5070431;28;20093;-72
2021/09/01 08:39:48;;;;;;;23.38;7.97;;;;;;;15.53;70.76;100863.50;5069738;28;20067;-71
2021/09/01 08:42:17;;;;;;;16.85;8.10;;;;;;;15.58;70.44;100857.00;5071077;28;20033;-71
2021/09/01 08:44:42;;;;;;;15.55;8.18;;;;;;;15.65;70.33;100857.53;5070472;28;20057;-72
2021/09/01 08:47:09;;;;;;;23.00;10.30;;;;;;;15.72;70.03;100858.97;5070277;28;20226;-71
2021/09/01 08:49:34;;;;;;;17.42;9.80;;;;;;;15.68;70.02;100860.03;5069453;28;20577;-72
2021/09/01 08:52:00;;;;;;;17.83;9.80;;;;;;;15.62;70.39;100861.22;5070795;28;20112;-73
2021/09/01 08:54:26;;;;;;;19.13;10.27;;;;;;;15.65;70.40;100861.06;5070622;28;20037;-71
2021/09/01 08:56:51;;;;;;;18.65;11.10;;;;;;;15.64;70.25;100869.13;5071839;28;20512;-72
2021/09/01 08:59:17;;;;;;;20.13;12.25;;;;;;;15.60;70.81;100868.44;5070847;28;20036;-71
2021/09/01 09:01:45;;;;;;;19.52;11.70;;;;;;;15.60;70.40;100865.78;5070605;28;20029;-72
2021/09/01 09:04:27;;;;;;;30.13;10.90;;;;;;;15.62;70.71;100865.66;5069778;28;20489;-71
2021/09/01 09:06:58;;;;;;;22.70;9.50;;;;;;;15.73;70.61;100870.47;5070687;28;20037;-71
2021/09/01 09:09:26;;;;;;;18.23;10.00;;;;;;;15.74;70.95;100873.03;5069846;28;20047;-72
2021/09/01 09:11:52;;;;;;;20.00;9.38;;;;;;;15.69;71.50;100877.69;5070948;28;20032;-72
2021/09/01 09:14:25;;;;;;;15.32;8.98;;;;;;;15.67;71.60;100883.09;5072054;28;20039;-72
2021/09/01 09:17:10;;;;;;;16.63;9.30;;;;;;;15.61;72.34;100879.91;5071843;28;20032;-71
2021/09/01 09:19:49;;;;;;;18.65;8.73;;;;;;;15.61;72.29;100882.56;5071703;28;20039;-71
2021/09/01 09:22:28;;;;;;;29.55;9.93;;;;;;;15.52;72.82;100880.38;5069419;28;20404;-73
2021/09/01 09:25:05;;;;;;;17.65;9.43;;;;;;;15.51;73.05;100884.00;5071455;28;20043;-72
2021/09/01 09:27:45;;;;;;;15.93;9.10;;;;;;;15.50;73.84;100877.81;5069063;28;20032;-72
2021/09/01 09:30:20;;;;;;;20.08;9.38;;;;;;;15.58;73.00;100872.09;5071039;28;20028;-72
2021/09/01 09:33:15;;;;;;;15.37;8.73;;;;;;;15.65;71.93;100869.03;5069949;28;20051;-70
2021/09/01 09:35:57;;;;;;;14.43;9.15;;;;;;;15.69;72.14;100867.06;5069347;28;20295;-73
2021/09/01 09:38:45;;;;;;;13.95;8.40;;;;;;;15.75;70.93;100863.25;5069628;28;20037;-71
2021/09/01 09:41:24;;;;;;;15.95;8.18;;;;;;;15.76;70.59;100862.31;5069777;28;20036;-70
2021/09/01 09:43:52;;;;;;;21.60;12.02;;;;;;;15.81;71.22;100865.59;5072661;28;20041;-71
2021/09/01 09:46:17;;;;;;;21.50;10.57;;;;;;;15.90;70.09;100875.75;5072425;28;20028;-72
2021/09/01 09:48:45;;;;;;;26.02;13.20;;;;;;;15.88;70.11;100862.53;5077468;28;20036;-71
2021/09/01 09:51:12;;;;;;;23.00;14.82;;;;;;;15.79;69.59;100862.16;5076396;28;20032;-72
2021/09/01 09:53:42;;;;;;;20.50;14.18;;;;;;;15.77;69.54;100870.19;5065186;28;20040;-72
2021/09/01 09:56:17;;;;;;;22.13;14.88;;;;;;;15.80;69.43;100859.41;5057362;28;20048;-71
2021/09/01 09:58:48;;;;;;;28.67;14.70;;;;;;;15.81;69.21;100870.91;5075061;28;20043;-71
2021/09/01 10:01:16;;;;;;;18.40;11.45;;;;;;;15.71;70.28;100859.06;5074896;28;20653;-72
2021/09/01 10:03:43;;;;;;;24.35;13.38;;;;;;;15.70;70.73;100863.50;5074071;28;20032;-72
2021/09/01 10:06:13;;;;;;;16.98;10.95;;;;;;;15.75;70.12;100863.25;5074467;28;20071;-74
2021/09/01 10:08:39;;;;;;;17.40;10.48;;;;;;;15.92;70.09;100870.31;5075569;28;20055;-73
2021/09/01 10:11:06;;;;;;;19.55;13.55;;;;;;;16.00;69.61;100871.63;5072459;28;20609;-74
2021/09/01 10:13:32;;;;;;;27.20;12.55;;;;;;;16.07;69.55;100864.16;5072846;28;20559;-71
2021/09/01 10:16:03;;;;;;;19.63;12.60;;;;;;;16.10;68.93;100861.34;5071604;28;20036;-73
2021/09/01 10:18:32;;;;;;;17.90;10.90;;;;;;;16.12;68.99;100853.28;5072228;28;20132;-71
2021/09/01 10:20:58;;;;;;;18.20;10.93;;;;;;;16.18;69.23;100860.94;5071821;28;20050;-71
2021/09/01 10:23:42;;;;;;;16.55;10.15;;;;;;;16.20;68.66;100857.25;5072467;28;20071;-72
2021/09/01 10:26:24;;;;;;;22.53;10.90;;;;;;;16.23;68.70;100857.06;5070342;28;20059;-71
2021/09/01 10:28:50;;;;;;;14.45;10.68;;;;;;;16.16;68.87;100852.16;5070555;28;20289;-71
2021/09/01 10:31:16;;;;;;;20.65;11.32;;;;;;;16.15;68.34;100846.00;5052265;28;20107;-72
2021/09/01 10:33:45;;;;;;;17.40;11.43;;;;;;;16.06;69.40;100850.00;5069754;28;20074;-72
2021/09/01 10:36:25;;;;;;;19.60;11.15;;;;;;;15.99;69.97;100851.28;5069373;28;20050;-70
2021/09/01 10:39:14;;;;;;;21.08;12.05;;;;;;;16.00;69.16;100850.34;5069722;28;20090;-71
2021/09/01 10:41:40;;;;;;;18.13;9.82;;;;;;;16.05;69.13;100856.28;5067415;28;20370;-73
2021/09/01 10:44:17;;;;;;;16.63;9.25;;;;;;;16.02;68.82;100853.81;5068934;28;20044;-73
2021/09/01 10:46:52;;;;;;;19.20;11.50;;;;;;;15.97;69.27;100847.84;5069913;28;20033;-71
2021/09/01 10:49:25;;;;;;;25.83;12.03;;;;;;;15.98;69.46;100843.41;5082838;28;20036;-73
2021/09/01 10:51:58;;;;;;;14.82;11.80;;;;;;;16.00;69.08;100846.84;5063575;28;20128;-72
2021/09/01 10:54:37;;;;;;;21.02;11.10;;;;;;;15.94;69.73;100848.03;5066070;28;20037;-73
2021/09/01 10:57:19;;;;;;;13.93;9.75;;;;;;;16.02;69.91;100843.16;5060186;28;21004;-75
2021/09/01 10:59:45;;;;;;;14.20;9.55;;;;;;;16.05;69.06;100842.97;5068879;28;20029;-71
2021/09/01 11:02:16;;;;;;;11.65;9.68;;;;;;;16.09;68.79;100841.00;5050063;28;20055;-73
2021/09/01 11:04:55;;;;;;;16.50;8.77;;;;;;;16.13;68.38;100841.69;5057979;28;20048;-72
2021/09/01 11:07:31;;;;;;;11.88;7.78;;;;;;;16.18;68.39;100842.31;5070421;28;20045;-73
2021/09/01 11:09:59;;;;;;;18.70;9.25;;;;;;;16.23;67.88;100848.22;5066726;28;20842;-73
2021/09/01 11:12:26;;;;;;;12.98;8.82;;;;;;;16.23;66.65;100846.41;5065221;28;20497;-72
2021/09/01 11:14:52;;;;;;;11.45;8.32;;;;;;;16.13;67.12;100844.38;5053450;28;20657;-72
2021/09/01 11:17:21;;;;;;;15.27;9.35;;;;;;;16.10;67.04;100846.25;5063870;28;20037;-72
2021/09/01 11:19:49;;;;;;;13.05;8.75;;;;;;;16.12;66.15;100840.84;5063662;28;20036;-72